Time;durP1;ratioP1;P1;durP2;ratioP2;P2;SDS_P1;SDS_P2;PMS_P1;PMS_P2;Temp;Humidity;BMP_temperature;BMP_pressure;BME280_temperature;BME280_humidity;BME280_pressure;Samples;Min_cycle;Max_cycle;Signal;HPM_P1;HPM_P2
2023/05/10 00:02:09;;;;;;;2.58;0.90;;;13.10;99.90;;;12.75;100.00;96610.13;4887397;29;20500;-37
2023/05/10 00:04:35;;;;;;;2.15;0.90;;;13.10;99.90;;;12.73;100.00;96606.72;4884673;29;20225;-37
2023/05/10 00:07:01;;;;;;;2.45;0.70;;;13.00;99.90;;;12.66;100.00;96617.75;4873238;29;20053;-37
2023/05/10 00:09:26;;;;;;;1.50;0.73;;;13.00;99.90;;;12.61;100.00;96612.72;4878061;29;20063;-37
2023/05/10 00:11:52;;;;;;;2.70;0.80;;;13.00;99.90;;;12.61;100.00;96618.00;4873020;29;20127;-37
2023/05/10 00:14:18;;;;;;;0.75;0.65;;;12.90;99.90;;;12.58;100.00;96623.50;4868099;29;20036;-37
2023/05/10 00:16:44;;;;;;;1.80;0.60;;;12.90;99.90;;;12.50;100.00;96620.44;4879834;29;20511;-37
2023/05/10 00:19:10;;;;;;;1.25;0.52;;;12.90;99.90;;;12.41;100.00;96613.88;4879422;29;20032;-37
2023/05/10 00:21:35;;;;;;;0.93;0.57;;;12.80;99.90;;;12.39;100.00;96618.41;4882266;29;20033;-37
2023/05/10 00:24:01;;;;;;;5.43;0.70;;;12.70;99.90;;;12.36;100.00;96614.16;4885266;29;20040;-37
2023/05/10 00:26:27;;;;;;;0.50;0.38;;;12.70;99.90;;;12.27;100.00;96609.34;4880011;29;20044;-37
2023/05/10 00:28:52;;;;;;;0.82;0.47;;;12.60;99.90;;;12.16;100.00;96612.59;4884470;29;20033;-37
2023/05/10 00:31:18;;;;;;;9.75;0.73;;;12.50;99.90;;;12.14;100.00;96609.19;4883753;29;20216;-37
2023/05/10 00:33:44;;;;;;;4.25;0.50;;;12.50;99.90;;;12.10;100.00;96618.25;4882151;29;20037;-37
2023/05/10 00:36:10;;;;;;;0.60;0.47;;;12.40;99.90;;;12.08;100.00;96617.47;4876441;29;20024;-37
2023/05/10 00:38:35;;;;;;;3.80;0.50;;;12.40;99.90;;;12.00;100.00;96612.59;4886399;29;20069;-37
2023/05/10 00:41:01;;;;;;;0.65;0.30;;;12.40;99.90;;;11.98;100.00;96614.47;4885015;29;20044;-37
2023/05/10 00:43:27;;;;;;;1.13;0.20;;;12.40;99.90;;;11.93;100.00;96615.66;4886482;29;20280;-37
2023/05/10 00:45:53;;;;;;;3.47;0.47;;;12.30;99.90;;;11.90;100.00;96616.69;4880878;29;20108;-37
2023/05/10 00:48:19;;;;;;;0.32;0.20;;;12.20;99.90;;;11.88;100.00;96623.81;4879253;29;20033;-37
2023/05/10 00:50:45;;;;;;;5.22;0.45;;;12.20;99.90;;;11.85;100.00;96618.69;4882019;29;20033;-37
2023/05/10 00:53:11;;;;;;;2.75;0.28;;;12.20;99.90;;;11.77;100.00;96621.78;4886974;29;20036;-37
2023/05/10 00:55:37;;;;;;;0.30;0.20;;;12.20;99.90;;;11.77;100.00;96627.06;4866644;29;20107;-37
2023/05/10 00:58:03;;;;;;;3.33;0.30;;;12.20;99.90;;;11.74;100.00;96634.28;4887839;29;20061;-37
2023/05/10 01:00:29;;;;;;;0.65;0.30;;;12.10;99.90;;;11.71;100.00;96631.81;4863483;29;20047;-37
2023/05/10 01:02:55;;;;;;;0.20;0.20;;;12.10;99.90;;;11.65;100.00;96638.28;4888260;29;20421;-37
2023/05/10 01:05:20;;;;;;;3.03;0.30;;;12.10;99.90;;;11.65;100.00;96638.28;4867107;29;20254;-37
2023/05/10 01:07:46;;;;;;;5.22;0.47;;;12.10;99.90;;;11.68;100.00;96638.09;4880521;29;20040;-37
2023/05/10 01:10:12;;;;;;;11.75;1.02;;;12.00;99.90;;;11.69;100.00;96629.25;4882642;29;20047;-37
2023/05/10 01:12:41;;;;;;;7.60;0.60;;;12.10;99.90;;;11.61;100.00;96627.03;4866868;29;20029;-37
2023/05/10 01:15:11;;;;;;;2.85;0.50;;;12.10;99.90;;;11.66;100.00;96634.69;4884894;29;20036;-37
2023/05/10 01:17:39;;;;;;;1.35;0.32;;;12.10;99.90;;;11.70;100.00;96643.28;4855230;29;20076;-37
2023/05/10 01:20:07;;;;;;;0.80;0.40;;;12.10;99.90;;;11.64;100.00;96628.63;4875745;29;20024;-37
2023/05/10 01:23:31;;;;;;;0.98;0.20;;;12.10;99.90;;;11.67;100.00;96640.84;4879245;29;20040;-37
2023/05/10 01:26:07;;;;;;;2.50;0.38;;;12.10;99.90;;;11.67;100.00;96639.03;4861473;29;20089;-37
2023/05/10 01:29:22;;;;;;;0.13;0.13;;;12.10;99.90;;;11.69;100.00;96639.81;4881221;29;20051;-37
2023/05/10 01:32:22;;;;;;;0.47;0.40;;;12.10;99.90;;;11.68;100.00;96647.81;4876868;29;20124;-37
2023/05/10 01:35:02;;;;;;;3.10;0.50;;;12.10;99.90;;;11.62;100.00;96660.41;4878506;29;20701;-37
2023/05/10 01:38:17;;;;;;;0.40;0.40;;;12.00;99.90;;;11.53;100.00;96652.97;4876158;29;20586;-37
2023/05/10 01:41:13;;;;;;;0.90;0.68;;;12.00;99.90;;;11.51;100.00;96665.41;4851589;29;20956;-37
2023/05/10 01:44:24;;;;;;;0.63;0.40;;;11.90;99.90;;;11.44;100.00;96656.09;4880183;29;20033;-37
2023/05/10 01:47:00;;;;;;;0.65;0.30;;;11.90;99.90;;;11.40;100.00;96665.13;4857865;29;20047;-37
2023/05/10 01:49:34;;;;;;;0.82;0.68;;;11.80;99.90;;;11.40;100.00;96671.25;4879832;29;20067;-37
2023/05/10 01:52:09;;;;;;;0.60;0.50;;;11.80;99.90;;;11.37;100.00;96665.25;4867130;29;20312;-37
2023/05/10 01:54:38;;;;;;;0.30;0.30;;;11.80;99.90;;;11.32;100.00;96664.66;4863244;29;20035;-37
2023/05/10 01:57:08;;;;;;;0.22;0.22;;;11.70;99.90;;;11.34;100.00;96675.97;4877938;29;20044;-37
2023/05/10 01:59:36;;;;;;;0.32;0.32;;;11.70;99.90;;;11.30;100.00;96674.44;4882184;29;20505;-37
2023/05/10 02:02:04;;;;;;;1.05;0.43;;;11.70;99.90;;;11.28;100.00;96669.22;4865620;29;20040;-37
2023/05/10 02:04:31;;;;;;;0.30;0.30;;;11.70;99.90;;;11.24;100.00;96684.38;4876919;29;20036;-37
2023/05/10 02:06:57;;;;;;;0.52;0.40;;;11.60;99.90;;;11.13;100.00;96667.41;4866206;29;20041;-37
2023/05/10 02:09:25;;;;;;;1.17;0.50;;;11.60;99.90;;;11.20;100.00;96685.47;4870446;29;20505;-37
2023/05/10 02:11:51;;;;;;;0.98;0.30;;;11.60;99.90;;;11.16;100.00;96688.31;4877434;29;20025;-37
2023/05/10 02:14:18;;;;;;;0.95;0.40;;;11.50;99.90;;;11.13;100.00;96681.44;4870702;29;20039;-37
2023/05/10 02:16:46;;;;;;;0.75;0.43;;;11.60;99.90;;;11.10;100.00;96683.38;4868251;29;20787;-37
2023/05/10 02:19:14;;;;;;;0.95;0.40;;;11.50;99.90;;;11.07;100.00;96676.44;4883107;29;20032;-37
2023/05/10 02:21:41;;;;;;;0.50;0.47;;;11.50;99.90;;;11.09;100.00;96682.53;4867071;29;20053;-37
2023/05/10 02:24:08;;;;;;;0.40;0.40;;;11.50;99.90;;;11.08;100.00;96688.72;4865230;29;20399;-37
2023/05/10 02:26:36;;;;;;;1.15;0.30;;;11.50;99.90;;;11.05;100.00;96692.38;4862491;29;20044;-37
2023/05/10 02:29:03;;;;;;;1.25;0.40;;;11.40;99.90;;;11.05;100.00;96692.38;4858443;29;20224;-37
2023/05/10 02:31:32;;;;;;;0.20;0.20;;;11.40;99.90;;;11.01;100.00;96690.81;4879580;29;20056;-37
2023/05/10 02:33:59;;;;;;;0.40;0.30;;;11.40;99.90;;;11.05;100.00;96702.06;4854140;29;20116;-37
2023/05/10 02:36:27;;;;;;;0.30;0.30;;;11.40;99.90;;;11.08;100.00;96701.91;4881887;29;20481;-37
2023/05/10 02:38:53;;;;;;;0.20;0.20;;;11.40;99.90;;;11.12;100.00;96707.88;4861863;29;20412;-37
2023/05/10 02:41:22;;;;;;;1.17;0.30;;;11.50;99.90;;;11.17;100.00;96711.16;4878154;29;20096;-37
2023/05/10 02:43:52;;;;;;;0.95;0.30;;;11.50;99.90;;;11.18;100.00;96711.09;4875937;29;20039;-37
2023/05/10 02:46:18;;;;;;;0.30;0.30;;;11.60;99.90;;;11.22;100.00;96717.91;4863481;29;20760;-37
2023/05/10 02:48:44;;;;;;;0.30;0.30;;;11.60;99.90;;;11.27;100.00;96715.06;4881176;29;20037;-37
2023/05/10 02:51:14;;;;;;;1.67;0.38;;;11.70;99.90;;;11.26;100.00;96708.91;4882048;29;20044;-37
2023/05/10 02:53:43;;;;;;;0.20;0.20;;;11.60;99.90;;;11.33;100.00;96712.09;4883291;29;20139;-37
2023/05/10 02:56:17;;;;;;;1.23;0.50;;;11.70;99.90;;;11.33;100.00;96704.16;4867561;29;20036;-37
2023/05/10 02:58:42;;;;;;;1.80;0.55;;;11.70;99.90;;;11.35;100.00;96715.50;4864939;29;20070;-37
2023/05/10 03:01:08;;;;;;;1.55;0.50;;;11.70;99.90;;;11.36;100.00;96708.44;4880177;29;20494;-37
2023/05/10 03:03:34;;;;;;;0.38;0.38;;;11.70;99.90;;;11.37;100.00;96715.41;4880901;29;20362;-37
2023/05/10 03:06:00;;;;;;;0.40;0.40;;;11.80;99.90;;;11.38;100.00;96709.22;4882983;29;20048;-37
2023/05/10 03:08:29;;;;;;;2.72;0.40;;;11.70;99.90;;;11.38;100.00;96714.50;4881630;29;20037;-37
2023/05/10 03:11:30;;;;;;;0.93;0.73;;;11.80;99.90;;;11.38;100.00;96715.34;4867492;29;20658;-37
2023/05/10 03:14:13;;;;;;;0.47;0.47;;;11.80;99.90;;;11.38;100.00;96717.16;4884134;29;20096;-37
2023/05/10 03:17:00;;;;;;;2.47;0.73;;;11.80;99.90;;;11.42;100.00;96726.59;4866433;29;20028;-37
2023/05/10 03:19:50;;;;;;;0.98;0.80;;;11.80;99.90;;;11.40;100.00;96723.19;4871202;29;20039;-37
2023/05/10 03:22:34;;;;;;;1.00;0.80;;;11.80;99.90;;;11.33;100.00;96729.72;4867568;29;20089;-37
2023/05/10 03:25:05;;;;;;;0.75;0.60;;;11.80;99.90;;;11.25;100.00;96715.13;4881981;29;20489;-37
2023/05/10 03:27:32;;;;;;;0.70;0.68;;;11.70;99.90;;;11.36;100.00;96721.63;4887559;29;20159;-37
2023/05/10 03:29:58;;;;;;;1.50;0.52;;;11.80;99.90;;;11.39;100.00;96722.31;4886216;29;20043;-37
2023/05/10 03:32:24;;;;;;;0.63;0.63;;;11.80;99.90;;;11.39;100.00;96713.56;4871932;29;20028;-37
2023/05/10 03:34:50;;;;;;;1.38;1.08;;;11.80;99.90;;;11.35;100.00;96720.78;4866920;29;20396;-37
2023/05/10 03:37:15;;;;;;;2.78;0.80;;;11.80;99.90;;;11.35;100.00;96725.22;4887214;29;20032;-37
2023/05/10 03:39:41;;;;;;;1.23;0.70;;;11.80;99.90;;;11.36;100.00;96729.53;4882742;29;20075;-37
2023/05/10 03:42:07;;;;;;;0.90;0.60;;;11.80;99.90;;;11.36;100.00;96732.19;4887853;29;20481;-37
2023/05/10 03:44:35;;;;;;;2.70;0.90;;;11.80;99.90;;;11.38;100.00;96731.19;4890335;29;20051;-37
2023/05/10 03:47:01;;;;;;;0.82;0.82;;;11.80;99.90;;;11.42;100.00;96742.44;4884125;29;20040;-37
2023/05/10 03:49:26;;;;;;;1.00;0.70;;;11.80;99.90;;;11.43;100.00;96733.56;4871176;29;20402;-37
2023/05/10 03:51:52;;;;;;;0.70;0.70;;;11.80;99.90;;;11.43;100.00;96730.94;4884565;29;20024;-37
2023/05/10 03:54:18;;;;;;;0.80;0.70;;;11.80;99.90;;;11.44;100.00;96733.50;4884730;29;20449;-37
2023/05/10 03:56:43;;;;;;;2.35;0.70;;;11.80;99.90;;;11.43;100.00;96731.81;4884905;29;20043;-37
2023/05/10 03:59:09;;;;;;;0.60;0.60;;;11.80;99.90;;;11.42;100.00;96732.72;4883471;29;20028;-37
2023/05/10 04:01:35;;;;;;;2.47;0.50;;;11.80;99.90;;;11.41;100.00;96740.72;4882585;29;20375;-37
2023/05/10 04:04:01;;;;;;;0.73;0.70;;;11.80;99.90;;;11.33;100.00;96729.72;4879756;29;20044;-37
2023/05/10 04:06:26;;;;;;;1.73;0.73;;;11.80;99.90;;;11.38;100.00;96743.53;4881251;29;20068;-37
2023/05/10 04:08:52;;;;;;;0.60;0.60;;;11.80;99.90;;;11.41;100.00;96740.72;4882737;29;20045;-37
2023/05/10 04:11:18;;;;;;;1.02;0.85;;;11.80;99.90;;;11.38;100.00;96741.75;4884013;29;20321;-37
2023/05/10 04:13:43;;;;;;;0.60;0.60;;;11.80;99.90;;;11.42;100.00;96742.44;4888624;29;20032;-37
2023/05/10 04:16:09;;;;;;;0.65;0.65;;;11.80;99.90;;;11.44;100.00;96736.16;4883066;29;20040;-37
2023/05/10 04:18:35;;;;;;;0.93;0.70;;;11.80;99.90;;;11.46;100.00;96744.84;4876837;29;20332;-36
2023/05/10 04:21:01;;;;;;;1.52;0.80;;;11.90;99.90;;;11.51;100.00;96735.84;4882044;29;20048;-36
2023/05/10 04:23:27;;;;;;;2.35;0.80;;;11.90;99.90;;;11.53;100.00;96740.09;4887990;29;20052;-36
2023/05/10 04:25:59;;;;;;;1.52;0.75;;;11.90;99.90;;;11.54;100.00;96744.47;4867628;29;20070;-37
2023/05/10 04:28:24;;;;;;;0.85;0.70;;;11.90;99.90;;;11.55;100.00;96747.94;4887046;29;20034;-37
2023/05/10 04:30:50;;;;;;;1.70;0.70;;;12.00;99.90;;;11.58;100.00;96745.16;4878085;29;20036;-37
2023/05/10 04:33:16;;;;;;;1.65;0.95;;;11.90;99.90;;;11.63;100.00;96746.63;4882049;29;20127;-37
2023/05/10 04:35:42;;;;;;;0.77;0.77;;;12.00;99.90;;;11.64;100.00;96748.31;4883496;29;20428;-37
2023/05/10 04:38:07;;;;;;;1.00;0.80;;;12.00;99.90;;;11.62;100.00;96744.06;4886199;29;20091;-37
2023/05/10 04:40:34;;;;;;;1.52;0.77;;;12.00;99.90;;;11.64;100.00;96745.69;4887981;29;20671;-37
2023/05/10 04:42:59;;;;;;;0.95;0.70;;;12.00;99.90;;;11.67;100.00;96754.41;4890052;29;20059;-37
2023/05/10 04:45:25;;;;;;;1.05;0.98;;;12.10;99.90;;;11.72;100.00;96749.72;4887321;29;20036;-37
2023/05/10 04:47:51;;;;;;;1.77;0.80;;;12.10;99.90;;;11.77;100.00;96750.31;4879989;29;20036;-38
2023/05/10 04:50:17;;;;;;;1.73;0.90;;;12.10;99.90;;;11.79;100.00;96749.34;4893359;29;20063;-38
2023/05/10 04:52:42;;;;;;;3.22;0.90;;;12.20;99.90;;;11.90;100.00;96751.44;4893097;29;20119;-38
2023/05/10 04:55:09;;;;;;;1.45;1.00;;;12.30;99.90;;;11.96;100.00;96759.03;4899648;29;20039;-38
2023/05/10 04:57:35;;;;;;;4.25;1.60;;;12.30;99.90;;;11.99;100.00;96761.53;4894400;29;20076;-38
2023/05/10 05:00:01;;;;;;;1.10;1.00;;;12.40;99.90;;;12.03;100.00;96765.69;4889242;29;20505;-38
2023/05/10 05:02:27;;;;;;;1.20;1.10;;;12.40;99.90;;;12.04;100.00;96755.97;4882317;29;20040;-38
2023/05/10 05:04:52;;;;;;;2.88;0.90;;;12.50;99.90;;;12.13;100.00;96770.50;4894074;29;20040;-38
2023/05/10 05:07:18;;;;;;;1.98;0.95;;;12.50;99.90;;;12.17;100.00;96772.91;4879365;29;20283;-38
2023/05/10 05:09:44;;;;;;;1.05;0.80;;;12.60;99.90;;;12.23;100.00;96766.44;4878183;29;20328;-38
2023/05/10 05:12:13;;;;;;;1.17;0.68;;;12.60;99.90;;;12.31;100.00;96769.53;4877875;29;20108;-38
2023/05/10 05:14:40;;;;;;;1.08;0.98;;;12.70;99.90;;;12.37;100.00;96771.00;4882439;29;20040;-37
2023/05/10 05:17:05;;;;;;;1.35;1.00;;;12.70;99.90;;;12.43;100.00;96768.00;4879356;29;20379;-37
2023/05/10 05:19:31;;;;;;;1.33;0.70;;;12.80;99.90;;;12.51;100.00;96781.66;4872217;29;20064;-37
2023/05/10 05:21:57;;;;;;;1.38;0.63;;;12.90;99.90;;;12.59;100.00;96778.59;4881162;29;20045;-37
2023/05/10 05:24:23;;;;;;;1.98;1.02;;;13.00;99.90;;;12.68;100.00;96783.38;4886835;29;20035;-37
2023/05/10 05:26:49;;;;;;;1.88;1.00;;;13.10;99.90;;;12.79;100.00;96788.06;4878359;29;20678;-37
2023/05/10 05:29:14;;;;;;;0.82;0.70;;;13.20;99.90;;;12.87;100.00;96788.50;4881256;29;20056;-38
2023/05/10 05:31:40;;;;;;;0.77;0.68;;;13.20;99.90;;;12.90;100.00;96783.06;4880296;29;20032;-37
2023/05/10 05:34:05;;;;;;;0.90;0.80;;;13.30;99.90;;;12.93;100.00;96779.38;4882542;29;20036;-38
2023/05/10 05:36:31;;;;;;;1.67;0.88;;;13.30;99.90;;;12.95;100.00;96788.91;4885045;29;20047;-37
2023/05/10 05:38:57;;;;;;;2.55;0.95;;;13.40;99.90;;;12.98;100.00;96791.41;4878715;29;20123;-38
2023/05/10 05:41:24;;;;;;;1.40;1.10;;;13.40;99.90;;;13.02;100.00;96792.09;4878792;29;20040;-39
2023/05/10 05:43:50;;;;;;;1.52;0.80;;;13.40;99.90;;;13.08;100.00;96798.81;4899764;29;20059;-37
2023/05/10 05:46:15;;;;;;;0.73;0.73;;;13.50;99.90;;;13.05;100.00;96794.56;4891505;29;20065;-38
2023/05/10 05:48:41;;;;;;;1.35;0.80;;;13.50;99.90;;;13.14;100.00;96801.97;4888213;29;20501;-38
2023/05/10 05:51:07;;;;;;;1.98;0.98;;;13.50;99.90;;;13.17;100.00;96798.28;4898800;29;20899;-38
2023/05/10 05:53:32;;;;;;;1.88;0.90;;;13.60;99.90;;;13.28;100.00;96802.97;4900440;29;20028;-38
2023/05/10 05:55:59;;;;;;;1.15;0.90;;;13.60;99.90;;;13.33;100.00;96804.47;4897171;29;20033;-38
2023/05/10 05:58:25;;;;;;;1.33;0.85;;;13.70;99.90;;;13.27;100.00;96801.28;4895612;29;20103;-38
2023/05/10 06:00:51;;;;;;;2.58;0.90;;;13.70;99.90;;;13.34;100.00;96807.97;4895813;29;20549;-38
2023/05/10 06:03:18;;;;;;;1.40;1.00;;;13.70;99.90;;;13.34;100.00;96803.50;4893445;29;20024;-37
2023/05/10 06:05:44;;;;;;;2.42;0.93;;;13.70;99.90;;;13.23;100.00;96787.38;4895269;29;20036;-38
2023/05/10 06:08:10;;;;;;;1.05;0.80;;;13.70;99.90;;;13.41;100.00;96811.13;4896662;29;20040;-38
2023/05/10 06:10:36;;;;;;;0.95;0.80;;;13.80;99.90;;;13.47;100.00;96814.25;4898371;29;20024;-37
2023/05/10 06:13:02;;;;;;;0.80;0.80;;;13.90;99.90;;;13.60;100.00;96814.38;4895522;29;20874;-38
2023/05/10 06:15:27;;;;;;;3.45;0.80;;;14.00;99.90;;;13.66;100.00;96822.00;4894815;29;20561;-37
2023/05/10 06:17:53;;;;;;;1.65;1.10;;;14.00;99.90;;;13.68;100.00;96822.75;4888313;29;20042;-37
2023/05/10 06:20:19;;;;;;;0.70;0.70;;;14.10;99.90;;;13.75;100.00;96828.56;4890709;29;20060;-37
2023/05/10 06:22:45;;;;;;;3.20;1.30;;;14.10;99.90;;;13.77;100.00;96831.13;4888919;29;20041;-37
2023/05/10 06:25:11;;;;;;;1.35;0.90;;;14.20;99.90;;;13.76;100.00;96832.88;4882468;29;20040;-37
2023/05/10 06:27:37;;;;;;;0.82;0.80;;;14.10;99.90;;;13.71;100.00;96832.31;4884622;29;20028;-37
2023/05/10 06:30:03;;;;;;;1.67;0.80;;;14.10;99.90;;;13.67;100.00;96830.78;4887528;29;20050;-37
2023/05/10 06:32:29;;;;;;;0.93;0.70;;;14.00;99.90;;;13.65;100.00;96824.72;4892346;29;20355;-37
2023/05/10 06:34:54;;;;;;;3.00;1.20;;;14.00;99.90;;;13.57;100.00;96827.84;4889288;29;20630;-37
2023/05/10 06:37:20;;;;;;;1.10;0.93;;;14.00;99.90;;;13.59;100.00;96833.03;4889542;29;20028;-37
2023/05/10 06:39:46;;;;;;;1.40;0.75;;;14.00;99.90;;;13.64;100.00;96834.47;4888976;29;20393;-37
2023/05/10 06:42:11;;;;;;;1.27;0.77;;;14.00;99.90;;;13.70;100.00;96847.34;4887273;29;20126;-37
2023/05/10 06:44:37;;;;;;;3.28;1.10;;;14.10;99.90;;;13.73;100.00;96836.59;4885802;29;20494;-37
2023/05/10 06:47:03;;;;;;;2.08;0.80;;;14.10;99.90;;;13.78;100.00;96840.75;4883145;29;20257;-37
2023/05/10 06:49:29;;;;;;;0.93;0.70;;;14.20;99.90;;;13.86;100.00;96835.88;4890319;29;20055;-37
2023/05/10 06:51:58;;;;;;;3.33;1.17;;;14.20;99.90;;;13.89;100.00;96836.53;4888612;29;20032;-37
2023/05/10 06:54:24;;;;;;;2.17;0.93;;;14.30;99.90;;;13.79;100.00;96842.47;4888771;29;20040;-37
2023/05/10 06:56:49;;;;;;;1.25;0.90;;;14.20;99.90;;;13.73;100.00;96841.03;4889385;29;20035;-37
2023/05/10 06:59:16;;;;;;;3.65;0.88;;;14.20;99.90;;;13.73;100.00;96844.53;4889743;29;20032;-37
2023/05/10 07:01:42;;;;;;;5.10;1.25;;;14.20;99.90;;;13.73;100.00;96835.75;4890579;29;20438;-37
2023/05/10 07:04:08;;;;;;;4.18;1.20;;;14.20;99.90;;;13.98;100.00;96844.88;4886877;29;20311;-37
2023/05/10 07:06:34;;;;;;;1.10;0.95;;;14.40;99.90;;;14.09;100.00;96843.31;4887412;29;20041;-37
2023/05/10 07:09:00;;;;;;;3.05;0.80;;;14.60;99.90;;;14.28;100.00;96844.84;4888545;29;20028;-37
2023/05/10 07:11:26;;;;;;;1.92;0.93;;;14.70;99.90;;;14.27;100.00;96844.00;4889854;29;20032;-37
2023/05/10 07:13:52;;;;;;;1.42;1.00;;;14.80;99.90;;;14.45;100.00;96843.81;4885570;29;20116;-37
2023/05/10 07:16:18;;;;;;;4.20;1.02;;;14.90;99.90;;;14.66;100.00;96842.53;4889536;29;20044;-37
2023/05/10 07:18:43;;;;;;;1.05;0.88;;;15.00;99.90;;;14.83;100.00;96841.47;4890817;29;20390;-37
2023/05/10 07:21:09;;;;;;;2.95;1.23;;;15.20;99.90;;;14.98;100.00;96846.75;4892257;29;20051;-37
2023/05/10 07:23:35;;;;;;;2.22;1.00;;;15.30;99.90;;;14.95;100.00;96841.63;4890731;29;20047;-37
2023/05/10 07:26:01;;;;;;;1.73;1.00;;;15.40;99.90;;;14.98;100.00;96842.28;4895354;29;20040;-37
2023/05/10 07:28:27;;;;;;;1.00;0.90;;;15.50;99.90;;;15.11;100.00;96847.69;4892849;29;20028;-37
2023/05/10 07:30:53;;;;;;;1.95;1.08;;;15.50;99.90;;;15.17;100.00;96849.09;4892673;29;20059;-37
2023/05/10 07:33:19;;;;;;;1.42;0.82;;;15.60;99.90;;;15.34;100.00;96851.50;4890963;29;20032;-37
2023/05/10 07:35:44;;;;;;;3.50;1.13;;;15.70;99.90;;;15.50;100.00;96858.47;4891264;29;20115;-37
2023/05/10 07:38:13;;;;;;;1.65;1.00;;;15.90;99.90;;;15.60;100.00;96854.28;4893318;29;20119;-37
2023/05/10 07:40:39;;;;;;;1.65;0.88;;;16.00;99.90;;;15.62;100.00;96860.34;4890955;29;20028;-37
2023/05/10 07:43:05;;;;;;;0.75;0.65;;;16.00;99.90;;;15.76;100.00;96859.47;4890806;29;20032;-37
2023/05/10 07:45:31;;;;;;;2.47;0.90;;;16.10;99.90;;;15.82;100.00;96859.88;4892516;29;20072;-37
2023/05/10 07:47:57;;;;;;;1.40;0.75;;;16.20;99.90;;;15.99;100.00;96857.94;4890723;29;20596;-37
2023/05/10 07:50:22;;;;;;;1.50;0.73;;;16.40;99.90;;;16.14;100.00;96867.50;4893345;29;20033;-37
2023/05/10 07:52:48;;;;;;;1.30;0.80;;;16.50;99.90;;;16.22;100.00;96873.19;4888841;29;20303;-37
2023/05/10 07:55:14;;;;;;;2.55;0.70;;;16.60;99.90;;;16.14;100.00;96872.84;4893504;29;20490;-37
2023/05/10 07:57:40;;;;;;;1.27;0.80;;;16.60;99.90;;;16.07;100.00;96873.34;4888786;29;20035;-37
2023/05/10 08:00:07;;;;;;;0.50;0.50;;;16.60;99.90;;;16.03;100.00;96859.41;4893711;29;20071;-37
2023/05/10 08:02:35;;;;;;;1.40;0.70;;;16.50;99.90;;;16.02;100.00;96873.66;4893103;29;20028;-37
2023/05/10 08:05:01;;;;;;;0.77;0.60;;;16.50;99.90;;;16.00;100.00;96879.06;4894383;29;20421;-37
2023/05/10 08:07:26;;;;;;;1.38;1.00;;;16.40;99.90;;;16.04;100.00;96874.41;4892007;29;20032;-37
2023/05/10 08:09:52;;;;;;;3.85;0.80;;;16.40;99.90;;;15.92;100.00;96877.91;4894887;29;20342;-37
2023/05/10 08:12:18;;;;;;;2.53;0.75;;;16.40;99.90;;;15.82;100.00;96878.50;4888483;29;20055;-37
2023/05/10 08:14:43;;;;;;;1.55;1.00;;;16.30;99.90;;;15.81;100.00;96871.50;4888916;29;20040;-37
2023/05/10 08:17:09;;;;;;;1.75;0.70;;;16.30;99.90;;;15.80;100.00;96876.91;4888739;29;20107;-37
2023/05/10 08:19:35;;;;;;;1.95;0.60;;;16.30;99.90;;;15.80;100.00;96872.44;4893260;29;20714;-37
2023/05/10 08:22:00;;;;;;;3.17;0.88;;;16.30;99.90;;;15.81;100.00;96875.97;4892969;29;20037;-37
2023/05/10 08:24:26;;;;;;;1.73;0.70;;;16.30;99.90;;;15.69;100.00;96880.25;4894902;29;20047;-37
2023/05/10 08:26:52;;;;;;;2.47;0.60;;;16.20;99.90;;;15.74;100.00;96880.81;4892223;29;20667;-37
2023/05/10 08:29:18;;;;;;;2.22;0.63;;;16.30;99.90;;;15.77;100.00;96877.97;4890239;29;20032;-37
2023/05/10 08:31:43;;;;;;;1.75;0.60;;;16.30;99.90;;;15.87;100.00;96886.19;4890110;29;20039;-37
2023/05/10 08:34:09;;;;;;;2.05;0.60;;;16.30;99.90;;;15.93;100.00;96888.41;4890124;29;20040;-37
2023/05/10 08:36:35;;;;;;;3.70;0.70;;;16.30;99.90;;;15.95;100.00;96883.00;4889762;29;20428;-37
2023/05/10 08:39:02;;;;;;;2.05;0.75;;;16.40;99.90;;;16.03;100.00;96892.19;4892304;29;20033;-37
2023/05/10 08:41:27;;;;;;;2.33;0.63;;;16.50;99.90;;;16.20;100.00;96892.84;4894321;29;20525;-37
2023/05/10 08:43:54;;;;;;;3.25;0.70;;;16.60;99.90;;;16.18;100.00;96895.59;4891995;29;20193;-37
2023/05/10 08:46:22;;;;;;;0.70;0.50;;;16.70;99.90;;;16.36;100.00;96893.50;4889016;29;20039;-37
2023/05/10 08:48:49;;;;;;;0.63;0.60;;;16.80;99.90;;;16.49;100.00;96885.56;4891821;29;20032;-37
2023/05/10 08:51:19;;;;;;;2.72;0.55;;;17.00;99.90;;;16.70;100.00;96891.16;4888960;29;20378;-37
2023/05/10 08:53:45;;;;;;;1.15;0.68;;;17.20;99.90;;;16.81;100.00;96898.41;4891132;29;20471;-37
2023/05/10 08:56:11;;;;;;;2.38;0.50;;;17.30;99.90;;;16.84;100.00;96900.06;4891894;29;20145;-37
2023/05/10 08:58:38;;;;;;;0.47;0.40;;;17.30;99.90;;;16.78;100.00;96885.34;4889165;29;20489;-37
2023/05/10 09:01:05;;;;;;;1.45;0.50;;;17.40;99.90;;;16.90;100.00;96900.44;4891696;29;20122;-37
2023/05/10 09:03:32;;;;;;;2.00;0.30;;;17.40;99.90;;;16.85;100.00;96913.28;4892067;29;20039;-37
2023/05/10 09:05:58;;;;;;;2.42;0.40;;;17.40;99.90;;;16.84;100.00;96903.56;4891654;29;20167;-37
2023/05/10 09:08:25;;;;;;;2.60;0.45;;;17.40;99.90;;;16.92;100.00;96903.00;4888613;29;20216;-37
2023/05/10 09:10:52;;;;;;;5.07;0.77;;;17.40;99.90;;;16.83;100.00;96916.94;4890867;29;20028;-37
2023/05/10 09:13:18;;;;;;;0.60;0.60;;;17.40;99.90;;;16.82;100.00;96913.44;4875592;29;20036;-37
2023/05/10 09:15:45;;;;;;;4.10;0.55;;;17.40;99.90;;;16.65;100.00;96909.28;4888096;29;20031;-37
2023/05/10 09:18:11;;;;;;;4.43;0.40;;;17.30;99.90;;;16.60;100.00;96922.06;4875046;29;20051;-37
2023/05/10 09:20:37;;;;;;;1.45;0.47;;;17.20;99.90;;;16.49;100.00;96925.47;4889114;29;20803;-37
2023/05/10 09:23:03;;;;;;;9.63;0.80;;;17.10;99.90;;;16.51;100.00;96918.22;4894387;29;20056;-37
2023/05/10 09:25:29;;;;;;;4.38;0.60;;;17.10;99.90;;;16.64;100.00;96920.91;4874398;29;20048;-37
2023/05/10 09:27:55;;;;;;;0.85;0.40;;;17.20;99.90;;;16.48;100.00;96910.44;4891490;29;20079;-37
2023/05/10 09:30:30;;;;;;;1.67;0.75;;;17.20;99.90;;;16.47;100.00;96913.22;4889002;29;20025;-37
2023/05/10 09:32:58;;;;;;;1.77;0.30;;;17.20;99.90;;;16.60;100.00;96914.09;4888434;29;20032;-37
2023/05/10 09:35:30;;;;;;;1.38;0.73;;;17.30;99.90;;;16.68;100.00;96929.53;4891109;29;20032;-37
2023/05/10 09:37:59;;;;;;;0.40;0.40;;;17.40;99.90;;;16.87;100.00;96915.78;4872619;29;20040;-37
2023/05/10 09:40:27;;;;;;;0.80;0.60;;;17.50;99.90;;;17.05;100.00;96924.31;4891317;29;20040;-37
2023/05/10 09:43:06;;;;;;;1.92;0.70;;;17.70;99.90;;;17.25;100.00;96918.44;4888689;29;20501;-37
2023/05/10 09:45:34;;;;;;;3.22;0.40;;;17.90;99.90;;;17.05;91.30;96922.50;4892210;29;20109;-37
2023/05/10 09:48:03;;;;;;;1.10;0.50;;;17.90;99.90;;;17.09;97.22;96923.16;4891302;29;20036;-37
2023/05/10 09:50:30;;;;;;;2.47;0.40;;;17.80;99.90;;;17.28;100.00;96926.22;4889670;29;20182;-37
2023/05/10 09:53:02;;;;;;;2.58;0.50;;;17.90;99.90;;;17.55;96.70;96926.03;4890168;29;20043;-37
2023/05/10 09:55:41;;;;;;;0.80;0.40;;;18.10;99.90;;;17.51;100.00;96927.19;4892036;29;20120;-37
2023/05/10 09:58:10;;;;;;;4.38;0.40;;;18.20;99.90;;;17.42;92.74;96927.84;4895487;29;20072;-37
2023/05/10 10:00:38;;;;;;;1.17;0.45;;;18.10;99.90;;;17.28;100.00;96928.88;4892238;29;20036;-37
2023/05/10 10:03:04;;;;;;;1.77;1.40;;;18.00;99.90;;;16.97;99.76;96931.03;4893937;29;20033;-37
2023/05/10 10:05:32;;;;;;;2.10;0.47;;;17.80;99.90;;;16.88;100.00;96922.84;4892929;29;20040;-37
2023/05/10 10:07:58;;;;;;;1.08;0.40;;;17.60;99.90;;;16.69;100.00;96915.22;4895720;29;20148;-37
2023/05/10 10:10:25;;;;;;;2.10;0.50;;;17.40;99.90;;;16.44;100.00;96932.91;4890167;29;20100;-37
2023/05/10 10:12:52;;;;;;;3.03;0.43;;;17.10;99.90;;;16.11;100.00;96920.91;4892236;29;20032;-37
2023/05/10 10:15:18;;;;;;;5.93;0.50;;;16.80;99.90;;;15.98;100.00;96920.03;4895214;29;20440;-37
2023/05/10 10:17:45;;;;;;;2.10;0.40;;;16.70;99.90;;;16.10;100.00;96915.72;4874124;29;20032;-37